createdAt,value
2019-04-16T00:01:48.772Z,-75
2019-04-16T00:04:24.968Z,-75
2019-04-16T00:07:07.347Z,-75
2019-04-16T00:09:48.552Z,-75
2019-04-16T00:12:35.575Z,-75
2019-04-16T00:15:07.224Z,-75
2019-04-16T00:17:36.727Z,-75
2019-04-16T00:20:25.718Z,-76
2019-04-16T00:22:57.798Z,-75
2019-04-16T00:25:27.296Z,-76
2019-04-16T00:27:59.564Z,-75
2019-04-16T00:30:28.353Z,-74
2019-04-16T00:32:57.843Z,-74
2019-04-16T00:35:27.300Z,-74
2019-04-16T00:37:56.789Z,-74
2019-04-16T00:40:27.205Z,-74
2019-04-16T00:42:56.799Z,-74
2019-04-16T00:45:26.296Z,-74
2019-04-16T00:47:55.764Z,-74
2019-04-16T00:50:25.260Z,-75
2019-04-16T00:52:54.762Z,-75
2019-04-16T00:55:24.242Z,-74
2019-04-16T00:57:53.783Z,-74
2019-04-16T01:00:23.360Z,-74
2019-04-16T01:02:52.831Z,-74
2019-04-16T01:05:22.336Z,-74
2019-04-16T01:07:52.181Z,-74
2019-04-16T01:10:21.651Z,-74
2019-04-16T01:12:51.128Z,-74
2019-04-16T01:15:20.650Z,-74
2019-04-16T01:17:50.131Z,-74
2019-04-16T01:20:19.595Z,-74
2019-04-16T01:22:49.077Z,-74
2019-04-16T01:25:20.266Z,-74
2019-04-16T01:27:51.398Z,-73
2019-04-16T01:30:22.598Z,-74
2019-04-16T01:33:02.227Z,-74
2019-04-16T01:35:33.432Z,-74
2019-04-16T01:38:14.338Z,-74
2019-04-16T01:40:49.795Z,-74
2019-04-16T01:43:16.675Z,-74
2019-04-16T01:45:46.228Z,-74
2019-04-16T01:48:15.712Z,-74
2019-04-16T01:50:45.213Z,-74
2019-04-16T01:53:14.703Z,-74
2019-04-16T01:55:44.244Z,-74
2019-04-16T01:58:13.739Z,-74
2019-04-16T02:00:43.341Z,-74
2019-04-16T02:03:17.525Z,-74
2019-04-16T02:05:44.033Z,-74
2019-04-16T02:08:13.518Z,-74
2019-04-16T02:10:42.994Z,-74
2019-04-16T02:13:14.979Z,-74
2019-04-16T02:15:43.740Z,-74
2019-04-16T02:18:13.379Z,-75
2019-04-16T02:20:42.895Z,-74
2019-04-16T02:23:31.791Z,-74
2019-04-16T02:26:01.271Z,-74
2019-04-16T02:28:30.766Z,-74
2019-04-16T02:31:00.592Z,-74
2019-04-16T02:33:30.231Z,-73
2019-04-16T02:35:59.776Z,-74
2019-04-16T02:38:29.267Z,-74
2019-04-16T02:40:58.798Z,-74
2019-04-16T02:43:28.425Z,-74
2019-04-16T02:45:58.768Z,-74
2019-04-16T02:48:28.514Z,-75
2019-04-16T02:51:15.753Z,-74
2019-04-16T02:53:54.393Z,-74
2019-04-16T02:56:42.090Z,-74
2019-04-16T02:59:13.737Z,-74
2019-04-16T03:01:49.401Z,-74
2019-04-16T03:04:21.047Z,-74
2019-04-16T03:06:50.631Z,-74
2019-04-16T03:09:20.157Z,-74
2019-04-16T03:11:49.807Z,-74
2019-04-16T03:14:19.266Z,-74
2019-04-16T03:17:00.434Z,-74
2019-04-16T03:19:31.606Z,-74
2019-04-16T03:22:02.229Z,-74
2019-04-16T03:24:32.444Z,-75
2019-04-16T03:27:22.160Z,-74
2019-04-16T03:29:52.515Z,-74
2019-04-16T03:32:21.976Z,-74
2019-04-16T03:35:10.902Z,-74
2019-04-16T03:37:40.408Z,-74
2019-04-16T03:40:17.026Z,-74
2019-04-16T03:42:41.309Z,-73
2019-04-16T03:45:10.910Z,-74
2019-04-16T03:47:40.405Z,-74
2019-04-16T03:50:10.717Z,-74
2019-04-16T03:52:42.273Z,-74
2019-04-16T03:55:11.512Z,-73
2019-04-16T03:57:40.996Z,-74
2019-04-16T04:00:12.759Z,-74
2019-04-16T04:02:42.286Z,-74
2019-04-16T04:05:11.826Z,-74
2019-04-16T04:07:44.013Z,-73
2019-04-16T04:10:13.338Z,-73
2019-04-16T04:12:45.675Z,-74
2019-04-16T04:15:14.178Z,-74
2019-04-16T04:18:03.052Z,-74
2019-04-16T04:20:32.740Z,-74
2019-04-16T04:23:02.193Z,-74
2019-04-16T04:25:36.001Z,-74
2019-04-16T04:28:02.901Z,-74
2019-04-16T04:30:32.451Z,-74
2019-04-16T04:33:07.664Z,-74
2019-04-16T04:35:33.132Z,-74
2019-04-16T04:38:04.137Z,-74
2019-04-16T04:40:44.386Z,-74
2019-04-16T04:43:05.095Z,-74
2019-04-16T04:45:34.632Z,-73
2019-04-16T04:48:04.352Z,-73
2019-04-16T04:50:35.428Z,-73
2019-04-16T04:53:05.012Z,-74
2019-04-16T04:55:34.508Z,-74
2019-04-16T04:58:04.003Z,-74
2019-04-16T05:00:33.454Z,-74
2019-04-16T05:03:03.282Z,-74
2019-04-16T05:05:34.402Z,-73
2019-04-16T05:08:03.890Z,-74
2019-04-16T05:10:36.622Z,-74
2019-04-16T05:13:04.702Z,-73
2019-04-16T05:15:34.426Z,-73
2019-04-16T05:18:05.839Z,-74
2019-04-16T05:20:35.095Z,-74
2019-04-16T05:23:04.619Z,-73
2019-04-16T05:25:34.474Z,-73
2019-04-16T05:28:04.053Z,-74
2019-04-16T05:30:33.701Z,-73
2019-04-16T05:33:05.515Z,-73
2019-04-16T05:35:34.543Z,-73
2019-04-16T05:38:04.086Z,-73
2019-04-16T05:40:35.183Z,-73
2019-04-16T05:43:04.891Z,-74
2019-04-16T05:45:37.042Z,-73
2019-04-16T05:48:05.620Z,-73
2019-04-16T05:50:54.466Z,-73
2019-04-16T05:53:24.186Z,-73
2019-04-16T05:56:00.864Z,-74
2019-04-16T05:58:30.934Z,-73
2019-04-16T06:01:14.807Z,-73
2019-04-16T06:03:44.263Z,-73
2019-04-16T06:06:13.739Z,-73
2019-04-16T06:08:43.260Z,-74
2019-04-16T06:11:26.558Z,-73
2019-04-16T06:13:45.592Z,-73
2019-04-16T06:16:16.703Z,-73
2019-04-16T06:18:51.920Z,-73
2019-04-16T06:21:22.605Z,-73
2019-04-16T06:24:06.297Z,-74
2019-04-16T06:26:49.116Z,-74
2019-04-16T06:29:35.864Z,-74
2019-04-16T06:32:11.926Z,-73
2019-04-16T06:34:59.651Z,-73
2019-04-16T06:40:32.560Z,-73
2019-04-16T06:43:06.005Z,-73
2019-04-16T06:45:37.891Z,-73
2019-04-16T06:48:12.862Z,-73
2019-04-16T06:50:44.719Z,-73
2019-04-16T06:53:15.851Z,-73
2019-04-16T06:55:46.968Z,-73
2019-04-16T06:58:29.893Z,-73
2019-04-16T07:01:16.931Z,-73
2019-04-16T07:03:59.466Z,-73
2019-04-16T07:06:44.227Z,-72
2019-04-16T07:09:25.241Z,-73
2019-04-16T07:11:54.888Z,-73
2019-04-16T07:14:24.513Z,-73
2019-04-16T07:16:54.006Z,-74
2019-04-16T07:19:23.549Z,-76
2019-04-16T07:21:53.077Z,-73
2019-04-16T07:24:23.608Z,-73
2019-04-16T07:26:56.340Z,-73
2019-04-16T07:29:32.704Z,-73
2019-04-16T07:32:16.918Z,-72
2019-04-16T07:34:48.043Z,-73
2019-04-16T07:37:33.082Z,-73
2019-04-16T07:40:19.429Z,-73
2019-04-16T07:43:02.522Z,-73
2019-04-16T07:45:42.755Z,-73
2019-04-16T07:48:22.665Z,-74
2019-04-16T07:51:08.694Z,-73
2019-04-16T07:53:39.782Z,-74
2019-04-16T07:56:19.633Z,-74
2019-04-16T07:58:49.197Z,-74
2019-04-16T08:01:18.848Z,-74
2019-04-16T08:03:48.299Z,-74
2019-04-16T08:06:17.803Z,-74
2019-04-16T08:08:47.664Z,-74
2019-04-16T08:11:17.199Z,-74
2019-04-16T08:13:46.769Z,-74
2019-04-16T08:16:16.232Z,-74
2019-04-16T08:18:49.933Z,-74
2019-04-16T08:21:22.527Z,-74
2019-04-16T08:23:53.108Z,-74
2019-04-16T08:26:22.663Z,-74
2019-04-16T08:28:52.162Z,-74
2019-04-16T08:31:23.265Z,-74
2019-04-16T08:33:52.758Z,-74
2019-04-16T08:36:22.241Z,-74
2019-04-16T08:38:51.721Z,-74
2019-04-16T08:41:21.735Z,-74
2019-04-16T08:43:51.337Z,-75
2019-04-16T08:46:20.893Z,-75
2019-04-16T08:48:53.983Z,-74
2019-04-16T08:51:30.409Z,-73
2019-04-16T08:53:52.871Z,-73
2019-04-16T08:56:22.405Z,-73
2019-04-16T08:58:51.881Z,-74
2019-04-16T09:01:23.558Z,-74
2019-04-16T09:03:53.140Z,-74
2019-04-16T09:06:22.650Z,-74
2019-04-16T09:09:11.589Z,-74
2019-04-16T09:11:35.347Z,-74
2019-04-16T09:14:05.598Z,-74
2019-04-16T09:16:39.337Z,-74
2019-04-16T09:19:10.553Z,-74
2019-04-16T09:21:43.292Z,-74
2019-04-16T09:24:28.462Z,-74
2019-04-16T09:27:05.383Z,-74
2019-04-16T09:29:40.407Z,-74
2019-04-16T09:32:28.135Z,-74
2019-04-16T09:35:09.191Z,-74
2019-04-16T09:37:45.292Z,-75
2019-04-16T09:40:32.461Z,-75
2019-04-16T09:43:16.238Z,-74
2019-04-16T09:45:37.177Z,-74
2019-04-16T09:48:06.148Z,-74
2019-04-16T09:50:35.634Z,-74
2019-04-16T09:53:05.118Z,-74
2019-04-16T09:55:34.599Z,-74
2019-04-16T09:58:06.903Z,-75
2019-04-16T10:00:38.128Z,-74
2019-04-16T10:03:28.159Z,-74
2019-04-16T10:05:56.462Z,-74
2019-04-16T10:08:29.035Z,-74
2019-04-16T10:10:58.157Z,-74
2019-04-16T10:13:32.867Z,-74
2019-04-16T10:16:00.506Z,-74
2019-04-16T10:18:34.407Z,-74
2019-04-16T10:21:01.214Z,-73
2019-04-16T10:23:39.670Z,-74
2019-04-16T10:26:09.319Z,-74
2019-04-16T10:28:40.468Z,-75
2019-04-16T10:31:11.732Z,-74
2019-04-16T10:33:41.267Z,-74
2019-04-16T10:36:10.834Z,-74
2019-04-16T10:38:41.972Z,-74
2019-04-16T10:41:15.736Z,-73
2019-04-16T10:43:58.741Z,-75
2019-04-16T10:46:45.977Z,-74
2019-04-16T10:49:17.163Z,-74
2019-04-16T10:52:03.031Z,-74
2019-04-16T10:54:38.331Z,-75
2019-04-16T10:57:19.510Z,-74
2019-04-16T11:00:08.569Z,-74
2019-04-16T11:02:40.401Z,-74
2019-04-16T11:05:24.019Z,-74
2019-04-16T11:07:55.217Z,-74
2019-04-16T11:10:24.788Z,-74
2019-04-16T11:12:54.377Z,-74
2019-04-16T11:15:25.510Z,-75
2019-04-16T11:17:55.087Z,-75
2019-04-16T11:20:25.013Z,-75
2019-04-16T11:22:54.544Z,-75
2019-04-16T11:25:23.971Z,-75
2019-04-16T11:27:53.704Z,-74
2019-04-16T11:30:31.282Z,-74
2019-04-16T11:33:00.877Z,-74
2019-04-16T11:35:30.366Z,-74
2019-04-16T11:37:59.835Z,-74
2019-04-16T11:40:29.478Z,-74
2019-04-16T11:42:58.997Z,-75
2019-04-16T11:45:28.652Z,-74
2019-04-16T11:47:58.144Z,-74
2019-04-16T11:50:27.626Z,-74
2019-04-16T11:52:58.526Z,-74
2019-04-16T11:55:28.268Z,-74
2019-04-16T11:57:57.751Z,-74
2019-04-16T12:00:40.900Z,-74
2019-04-16T12:03:12.170Z,-75
2019-04-16T12:05:52.336Z,-74
2019-04-16T12:08:35.736Z,-74
2019-04-16T12:11:17.008Z,-75
2019-04-16T12:13:50.582Z,-74
2019-04-16T12:16:24.376Z,-75
2019-04-16T12:19:00.755Z,-74
2019-04-16T12:21:31.946Z,-75
2019-04-16T12:24:18.678Z,-75
2019-04-16T12:26:49.938Z,-74
2019-04-16T12:29:23.149Z,-76
2019-04-16T12:32:04.308Z,-77
2019-04-16T12:34:36.022Z,-77
2019-04-16T12:37:25.464Z,-77
2019-04-16T12:39:54.848Z,-77
2019-04-16T12:42:28.462Z,-78
2019-04-16T12:45:14.681Z,-77
2019-04-16T12:47:46.043Z,-77
2019-04-16T12:50:17.510Z,-77
2019-04-16T12:52:55.527Z,-77
2019-04-16T12:55:38.500Z,-77
2019-04-16T12:58:19.149Z,-77
2019-04-16T13:00:51.289Z,-77
2019-04-16T13:03:34.211Z,-77
2019-04-16T13:06:09.855Z,-78
2019-04-16T13:08:47.112Z,-78
2019-04-16T13:11:20.759Z,-77
2019-04-16T13:13:59.170Z,-77
2019-04-16T13:16:46.152Z,-76
2019-04-16T13:19:35.335Z,-78
2019-04-16T13:22:07.373Z,-77
2019-04-16T13:24:38.716Z,-77
2019-04-16T13:27:15.543Z,-77
2019-04-16T13:29:45.226Z,-78
2019-04-16T13:32:14.791Z,-77
2019-04-16T13:34:44.326Z,-77
2019-04-16T13:37:13.914Z,-77
2019-04-16T13:39:54.334Z,-77
2019-04-16T13:42:23.836Z,-77
2019-04-16T13:44:57.733Z,-78
2019-04-16T13:47:27.234Z,-76
2019-04-16T13:50:02.570Z,-76
2019-04-16T13:52:29.632Z,-76
2019-04-16T13:55:08.417Z,-76
2019-04-16T13:57:37.912Z,-76
2019-04-16T14:00:15.544Z,-77
2019-04-16T14:02:52.883Z,-76
2019-04-16T14:05:23.002Z,-76
2019-04-16T14:07:52.635Z,-77
2019-04-16T14:10:22.296Z,-76
2019-04-16T14:12:51.916Z,-76
2019-04-16T14:15:31.679Z,-76
2019-04-16T14:17:59.077Z,-76
2019-04-16T14:20:27.144Z,-76
2019-04-16T14:22:56.644Z,-76
2019-04-16T14:25:26.260Z,-76
2019-04-16T14:27:59.107Z,-76
2019-04-16T14:30:28.688Z,-76
2019-04-16T14:32:58.192Z,-77
2019-04-16T14:35:33.589Z,-76
2019-04-16T14:38:00.527Z,-76
2019-04-16T14:40:30.442Z,-76
2019-04-16T14:43:00.117Z,-77
2019-04-16T14:45:53.635Z,-78
2019-04-16T14:48:09.786Z,-77
2019-04-16T14:50:39.667Z,-76
2019-04-16T14:53:09.340Z,-76
2019-04-16T14:55:43.724Z,-78
2019-04-16T14:58:27.937Z,-78
2019-04-16T15:00:59.261Z,-77
2019-04-16T15:03:45.454Z,-75
2019-04-16T15:06:25.522Z,-75
2019-04-16T15:08:58.010Z,-76
2019-04-16T15:11:31.608Z,-75
2019-04-16T15:14:02.718Z,-76
2019-04-16T15:16:34.471Z,-75
2019-04-16T15:19:21.864Z,-76
2019-04-16T15:22:09.342Z,-76
2019-04-16T15:24:53.547Z,-75
2019-04-16T15:27:53.115Z,-77
2019-04-16T15:30:30.350Z,-76
2019-04-16T15:33:07.082Z,-76
2019-04-16T15:35:40.664Z,-76
2019-04-16T15:38:19.209Z,-76
2019-04-16T15:40:50.378Z,-76
2019-04-16T15:43:37.727Z,-76
2019-04-16T15:46:12.883Z,-76
2019-04-16T15:48:50.412Z,-76
2019-04-16T15:51:29.034Z,-76
2019-04-16T15:54:07.840Z,-76
2019-04-16T15:56:54.089Z,-76
2019-04-16T15:59:27.609Z,-76
2019-04-16T16:02:14.848Z,-77
2019-04-16T16:04:45.964Z,-77
2019-04-16T16:07:15.495Z,-76
2019-04-16T16:10:03.020Z,-76
2019-04-16T16:12:32.586Z,-76
2019-04-16T16:15:02.160Z,-75
2019-04-16T16:17:33.269Z,-76
2019-04-16T16:20:02.904Z,-76
2019-04-16T16:22:32.375Z,-76
2019-04-16T16:25:05.460Z,-76
2019-04-16T16:27:33.146Z,-76
2019-04-16T16:30:02.871Z,-77
2019-04-16T16:32:32.520Z,-77
2019-04-16T16:35:02.158Z,-77
2019-04-16T16:37:33.862Z,-77
2019-04-16T16:40:02.846Z,-76
2019-04-16T16:42:32.358Z,-76
2019-04-16T16:45:02.965Z,-77
2019-04-16T16:47:34.615Z,-77
2019-04-16T16:50:07.545Z,-76
2019-04-16T16:52:38.612Z,-73
2019-04-16T16:55:13.304Z,-75
2019-04-16T16:57:44.721Z,-74
2019-04-16T17:00:20.717Z,-73
2019-04-16T17:02:52.599Z,-73
2019-04-16T17:05:29.598Z,-76
2019-04-16T17:07:59.097Z,-73
2019-04-16T17:10:28.603Z,-73
2019-04-16T17:12:58.074Z,-74
2019-04-16T17:15:27.739Z,-73
2019-04-16T17:17:57.219Z,-73
2019-04-16T17:20:26.783Z,-74
2019-04-16T17:22:56.317Z,-73
2019-04-16T17:25:36.128Z,-73
2019-04-16T17:27:57.162Z,-76
2019-04-16T17:30:27.156Z,-71
2019-04-16T17:32:56.657Z,-72
2019-04-16T17:35:26.289Z,-75
2019-04-16T17:38:01.594Z,-73
2019-04-16T17:40:30.306Z,-74
2019-04-16T17:43:12.952Z,-72
2019-04-16T17:45:42.863Z,-72
2019-04-16T17:48:20.961Z,-77
2019-04-16T17:50:59.003Z,-75
2019-04-16T17:53:42.116Z,-75
2019-04-16T17:56:29.390Z,-76
2019-04-16T17:59:16.759Z,-76
2019-04-16T18:01:50.443Z,-78
2019-04-16T18:04:25.670Z,-76
2019-04-16T18:07:06.705Z,-77
2019-04-16T18:09:36.039Z,-77
2019-04-16T18:12:23.040Z,-76
2019-04-16T18:15:00.062Z,-77
2019-04-16T18:17:46.878Z,-78
2019-04-16T18:20:09.349Z,-76
2019-04-16T18:22:38.760Z,-77
2019-04-16T18:25:10.166Z,-77
2019-04-16T18:27:47.201Z,-76
2019-04-16T18:30:34.521Z,-76
2019-04-16T18:33:22.119Z,-78
2019-04-16T18:35:51.524Z,-78
2019-04-16T18:38:29.523Z,-77
2019-04-16T18:41:16.774Z,-77
2019-04-16T18:43:48.023Z,-77
2019-04-16T18:46:22.146Z,-77
2019-04-16T18:49:02.704Z,-77
2019-04-16T18:51:33.533Z,-76
2019-04-16T18:54:03.424Z,-76
2019-04-16T18:56:32.923Z,-76
2019-04-16T18:59:02.569Z,-76
2019-04-16T19:01:33.775Z,-77
2019-04-16T19:04:03.591Z,-77
2019-04-16T19:06:33.342Z,-77
2019-04-16T19:09:03.124Z,-77
2019-04-16T19:11:32.849Z,-77
2019-04-16T19:14:02.440Z,-78
2019-04-16T19:16:32.024Z,-78
2019-04-16T19:19:01.883Z,-77
2019-04-16T19:21:31.493Z,-78
2019-04-16T19:24:00.973Z,-77
2019-04-16T19:26:30.726Z,-77
2019-04-16T19:29:00.277Z,-78
2019-04-16T19:31:29.794Z,-77
2019-04-16T19:33:59.378Z,-77
2019-04-16T19:36:28.882Z,-77
2019-04-16T19:39:17.910Z,-77
2019-04-16T19:41:47.434Z,-77
2019-04-16T19:44:17.010Z,-77
2019-04-16T19:46:52.420Z,-77
2019-04-16T19:49:18.121Z,-77
2019-04-16T19:54:23.323Z,-76
2019-04-16T19:56:53.170Z,-77
2019-04-16T19:59:22.899Z,-77
2019-04-16T20:01:55.985Z,-76
2019-04-16T20:04:23.833Z,-76
2019-04-16T20:06:53.988Z,-77
2019-04-16T20:09:24.704Z,-77
2019-04-16T20:11:55.554Z,-76
2019-04-16T20:14:25.457Z,-76
2019-04-16T20:16:55.289Z,-76
2019-04-16T20:19:24.965Z,-76
2019-04-16T20:21:54.442Z,-76
2019-04-16T20:24:23.932Z,-76
2019-04-16T20:26:53.465Z,-76
2019-04-16T20:29:23.104Z,-77
2019-04-16T20:31:53.258Z,-77
2019-04-16T20:34:22.855Z,-77
2019-04-16T20:36:55.764Z,-77
2019-04-16T20:39:23.586Z,-77
2019-04-16T20:41:58.443Z,-76
2019-04-16T20:44:24.400Z,-76
2019-04-16T20:46:53.910Z,-76
2019-04-16T20:49:23.418Z,-76
2019-04-16T20:51:56.623Z,-76
2019-04-16T20:54:25.033Z,-76
2019-04-16T20:56:55.009Z,-77
2019-04-16T20:59:24.656Z,-76
2019-04-16T21:01:54.185Z,-77
2019-04-16T21:04:23.706Z,-76
2019-04-16T21:06:53.265Z,-76
2019-04-16T21:09:22.917Z,-76
2019-04-16T21:11:52.856Z,-76
2019-04-16T21:14:22.746Z,-76
2019-04-16T21:16:52.377Z,-75
2019-04-16T21:19:23.802Z,-76
2019-04-16T21:21:56.480Z,-76
2019-04-16T21:24:24.544Z,-76
2019-04-16T21:26:54.016Z,-76
2019-04-16T21:29:33.296Z,-76
2019-04-16T21:32:02.541Z,-76
2019-04-16T21:34:33.668Z,-76
2019-04-16T21:37:17.099Z,-76
2019-04-16T21:39:51.186Z,-76
2019-04-16T21:42:19.524Z,-77
2019-04-16T21:44:49.059Z,-76
2019-04-16T21:47:23.208Z,-76
2019-04-16T21:49:49.844Z,-76
2019-04-16T21:52:19.439Z,-77
2019-04-16T21:54:48.966Z,-77
2019-04-16T21:57:18.498Z,-78
2019-04-16T21:59:50.288Z,-76
2019-04-16T22:02:26.800Z,-77
2019-04-16T22:04:56.544Z,-77
2019-04-16T22:07:26.177Z,-77
2019-04-16T22:09:55.947Z,-77
2019-04-16T22:12:25.586Z,-77
2019-04-16T22:14:55.631Z,-77
2019-04-16T22:17:25.515Z,-77
2019-04-16T22:20:01.549Z,-77
2019-04-16T22:22:27.770Z,-77
2019-04-16T22:24:57.929Z,-77
2019-04-16T22:27:29.060Z,-77
2019-04-16T22:29:58.518Z,-76
2019-04-16T22:32:30.959Z,-77
2019-04-16T22:34:59.202Z,-77
2019-04-16T22:37:28.747Z,-77
2019-04-16T22:40:02.780Z,-77
2019-04-16T22:42:43.888Z,-77
2019-04-16T22:45:31.075Z,-77
2019-04-16T22:48:00.551Z,-77
2019-04-16T22:50:30.069Z,-77
2019-04-16T22:53:18.959Z,-77
2019-04-16T22:55:48.420Z,-77
2019-04-16T22:58:50.328Z,-77
2019-04-16T23:01:21.679Z,-77
2019-04-16T23:03:53.374Z,-77
2019-04-16T23:06:22.424Z,-77
2019-04-16T23:08:51.894Z,-77
2019-04-16T23:11:23.656Z,-77
2019-04-16T23:13:52.781Z,-77
2019-04-16T23:16:22.377Z,-77
2019-04-16T23:18:51.902Z,-77
2019-04-16T23:21:21.493Z,-77
2019-04-16T23:23:52.276Z,-77
2019-04-16T23:26:21.908Z,-77
2019-04-16T23:28:51.568Z,-77
2019-04-16T23:31:22.751Z,-77
2019-04-16T23:33:52.479Z,-77
2019-04-16T23:36:22.050Z,-77
2019-04-16T23:38:51.616Z,-77
2019-04-16T23:41:21.112Z,-76
2019-04-16T23:44:08.838Z,-77
2019-04-16T23:46:46.979Z,-77
2019-04-16T23:49:34.312Z,-77
2019-04-16T23:52:14.592Z,-77
2019-04-16T23:55:00.479Z,-77
2019-04-16T23:57:43.336Z,-77
